createdAt,value
2018-05-13T00:01:31.565Z,13.80
2018-05-13T00:02:31.196Z,13.80
2018-05-13T00:04:24.931Z,13.40
2018-05-13T00:05:24.904Z,13.70
2018-05-13T00:07:18.386Z,13.40
2018-05-13T00:08:17.920Z,13.20
2018-05-13T00:10:11.684Z,13.90
2018-05-13T00:11:11.319Z,13.30
2018-05-13T00:13:06.283Z,13.20
2018-05-13T00:14:06.052Z,13.30
2018-05-13T00:15:59.483Z,13.40
2018-05-13T00:16:59.374Z,13.60
2018-05-13T00:18:52.880Z,13.60
2018-05-13T00:19:52.386Z,14.10
2018-05-13T00:21:46.667Z,12.70
2018-05-13T00:22:45.765Z,13.30
2018-05-13T00:24:39.576Z,13.50
2018-05-13T00:25:39.145Z,12.90
2018-05-13T00:27:32.960Z,13.10
2018-05-13T00:28:32.899Z,12.90
2018-05-13T00:30:26.304Z,12.50
2018-05-13T00:31:25.987Z,12.80
2018-05-13T00:33:19.607Z,12.80
2018-05-13T00:34:19.639Z,12.80
2018-05-13T00:36:12.992Z,13.40
2018-05-13T00:37:13.498Z,12.40
2018-05-13T00:39:05.904Z,13.00
2018-05-13T00:40:05.920Z,12.40
2018-05-13T00:41:59.266Z,12.90
2018-05-13T00:42:58.878Z,13.50
2018-05-13T00:44:57.648Z,12.10
2018-05-13T00:45:57.152Z,12.80
2018-05-13T00:47:50.580Z,12.50
2018-05-13T00:48:50.137Z,12.80
2018-05-13T00:50:43.940Z,12.70
2018-05-13T00:51:44.094Z,12.30
2018-05-13T00:53:37.258Z,12.40
2018-05-13T00:54:36.886Z,12.60
2018-05-13T00:56:30.728Z,12.20
2018-05-13T00:57:30.571Z,12.50
2018-05-13T00:59:24.634Z,11.60
2018-05-13T01:00:23.602Z,11.70
2018-05-13T01:02:17.360Z,11.70
2018-05-13T01:03:17.032Z,11.70
2018-05-13T01:05:11.288Z,11.50
2018-05-13T01:06:10.388Z,11.80
2018-05-13T01:08:04.175Z,11.60
2018-05-13T01:09:04.068Z,12.80
2018-05-13T01:10:58.155Z,12.10
2018-05-13T01:11:57.531Z,12.10
2018-05-13T01:13:50.980Z,12.20
2018-05-13T01:14:50.866Z,12.20
2018-05-13T01:16:44.293Z,12.40
2018-05-13T01:17:43.911Z,12.60
2018-05-13T01:19:38.169Z,12.60
2018-05-13T01:20:37.696Z,12.40
2018-05-13T01:22:31.156Z,12.20
2018-05-13T01:23:30.999Z,12.60
2018-05-13T01:25:24.450Z,12.40
2018-05-13T01:26:23.959Z,12.20
2018-05-13T01:28:18.320Z,12.30
2018-05-13T01:29:17.677Z,12.00
2018-05-13T01:31:10.901Z,12.30
2018-05-13T01:32:10.548Z,12.80
2018-05-13T01:34:04.314Z,12.90
2018-05-13T01:35:04.268Z,12.00
2018-05-13T01:36:57.658Z,12.50
2018-05-13T01:37:57.661Z,11.90
2018-05-13T01:39:51.012Z,11.90
2018-05-13T01:40:50.999Z,12.80
2018-05-13T01:42:44.379Z,11.60
2018-05-13T01:43:44.317Z,11.90
2018-05-13T01:45:37.712Z,9.20
2018-05-13T01:46:37.710Z,10.50
2018-05-13T01:48:31.200Z,8.60
2018-05-13T01:49:30.709Z,10.50
2018-05-13T01:51:24.465Z,9.20
2018-05-13T01:52:24.110Z,9.30
2018-05-13T01:54:17.879Z,7.80
2018-05-13T01:55:17.515Z,6.50
2018-05-13T01:57:11.109Z,7.30
2018-05-13T01:58:11.092Z,7.30
2018-05-13T02:00:04.468Z,6.10
2018-05-13T02:01:04.105Z,6.40
2018-05-13T02:02:57.899Z,6.40
2018-05-13T02:03:57.792Z,6.40
2018-05-13T02:05:51.229Z,7.50
2018-05-13T02:06:50.843Z,6.90
2018-05-13T02:08:44.735Z,7.00
2018-05-13T02:09:45.067Z,7.20
2018-05-13T02:11:37.967Z,7.30
2018-05-13T02:12:37.962Z,7.00
2018-05-13T02:14:31.268Z,7.10
2018-05-13T02:15:30.893Z,6.90
2018-05-13T02:17:25.309Z,7.00
2018-05-13T02:18:24.278Z,6.60
2018-05-13T02:20:17.941Z,6.20
2018-05-13T02:21:17.934Z,6.10
2018-05-13T02:23:11.308Z,6.40
2018-05-13T02:24:11.555Z,5.70
2018-05-13T02:26:05.752Z,6.30
2018-05-13T02:27:04.702Z,6.10
2018-05-13T02:28:58.110Z,6.30
2018-05-13T02:29:57.723Z,5.90
2018-05-13T02:31:51.463Z,5.70
2018-05-13T02:32:51.084Z,5.60
2018-05-13T02:34:51.495Z,5.60
2018-05-13T02:35:51.779Z,5.20
2018-05-13T02:37:44.915Z,5.80
2018-05-13T02:38:45.277Z,6.40
2018-05-13T02:40:38.545Z,5.70
2018-05-13T02:41:38.538Z,5.20
2018-05-13T02:43:31.908Z,5.50
2018-05-13T02:44:31.935Z,5.60
2018-05-13T02:46:26.855Z,5.30
2018-05-13T02:47:25.942Z,5.60
2018-05-13T02:49:19.676Z,5.40
2018-05-13T02:50:19.662Z,5.80
2018-05-13T02:52:13.661Z,4.90
2018-05-13T02:53:12.683Z,4.90
2018-05-13T02:55:06.506Z,4.60
2018-05-13T02:56:06.079Z,4.60
2018-05-13T02:58:00.177Z,5.10
2018-05-13T02:58:59.488Z,5.40
2018-05-13T03:00:53.780Z,5.70
2018-05-13T03:01:53.143Z,5.80
2018-05-13T03:03:46.568Z,5.90
2018-05-13T03:04:46.205Z,6.30
2018-05-13T03:06:47.019Z,6.30
2018-05-13T03:07:46.991Z,6.10
2018-05-13T03:09:40.389Z,7.20
2018-05-13T03:10:40.375Z,6.40
2018-05-13T03:12:33.758Z,7.10
2018-05-13T03:13:33.353Z,6.90
2018-05-13T03:15:27.064Z,6.60
2018-05-13T03:16:27.045Z,6.80
2018-05-13T03:18:21.876Z,6.70
2018-05-13T03:19:21.859Z,6.50
2018-05-13T03:21:15.257Z,7.50
2018-05-13T03:22:15.205Z,7.30
2018-05-13T03:24:09.044Z,7.50
2018-05-13T03:25:09.030Z,7.10
2018-05-13T03:27:03.581Z,8.20
2018-05-13T03:28:03.427Z,7.80
2018-05-13T03:29:57.212Z,7.90
2018-05-13T03:30:57.155Z,7.40
2018-05-13T03:32:50.068Z,7.80
2018-05-13T03:33:50.070Z,7.80
2018-05-13T03:35:43.982Z,8.30
2018-05-13T03:36:43.039Z,8.70
2018-05-13T03:38:36.771Z,8.30
2018-05-13T03:39:36.443Z,8.60
2018-05-13T03:41:30.210Z,8.20
2018-05-13T03:42:29.763Z,7.70
2018-05-13T03:44:25.097Z,8.30
2018-05-13T03:45:24.484Z,8.40
2018-05-13T03:47:32.427Z,8.30
2018-05-13T03:48:32.130Z,8.60
2018-05-13T03:50:25.411Z,8.90
2018-05-13T03:51:25.428Z,9.10
2018-05-13T03:53:18.874Z,8.70
2018-05-13T03:54:18.476Z,9.30
2018-05-13T03:56:12.294Z,8.40
2018-05-13T03:57:12.259Z,9.00
2018-05-13T03:59:05.755Z,9.00
2018-05-13T04:00:06.165Z,8.90
2018-05-13T04:01:59.027Z,9.50
2018-05-13T04:02:58.648Z,8.90
2018-05-13T04:04:52.411Z,9.50
2018-05-13T04:05:51.978Z,9.90
2018-05-13T04:07:46.322Z,10.20
2018-05-13T04:08:47.916Z,9.90
2018-05-13T04:10:39.198Z,10.10
2018-05-13T04:11:39.081Z,9.90
2018-05-13T04:13:32.534Z,9.70
2018-05-13T04:14:32.880Z,9.40
2018-05-13T04:16:26.557Z,10.20
2018-05-13T04:17:25.850Z,10.00
2018-05-13T04:19:19.781Z,10.60
2018-05-13T04:20:18.861Z,10.40
2018-05-13T04:22:12.654Z,11.00
2018-05-13T04:23:12.632Z,10.40
2018-05-13T04:25:06.507Z,10.10
2018-05-13T04:26:05.599Z,10.80
2018-05-13T04:27:59.404Z,10.60
2018-05-13T04:28:58.982Z,10.30
2018-05-13T04:30:53.331Z,10.90
2018-05-13T04:31:52.733Z,11.20
2018-05-13T04:33:46.721Z,11.30
2018-05-13T04:34:45.812Z,10.80
2018-05-13T04:36:39.666Z,11.60
2018-05-13T04:37:40.390Z,11.40
2018-05-13T04:39:32.897Z,10.80
2018-05-13T04:40:32.827Z,11.00
2018-05-13T04:42:26.132Z,11.50
2018-05-13T04:43:26.318Z,11.90
2018-05-13T04:45:19.579Z,12.20
2018-05-13T04:46:20.095Z,11.50
2018-05-13T04:48:12.971Z,10.80
2018-05-13T04:49:12.902Z,11.50
2018-05-13T04:51:06.304Z,11.20
2018-05-13T04:52:06.199Z,11.40
2018-05-13T04:53:59.652Z,11.00
2018-05-13T04:55:01.118Z,11.80
2018-05-13T04:56:53.029Z,11.20
2018-05-13T04:57:52.624Z,11.20
2018-05-13T04:59:47.052Z,10.90
2018-05-13T05:00:46.018Z,11.00
2018-05-13T05:02:39.724Z,10.90
2018-05-13T05:03:39.397Z,11.20
2018-05-13T05:05:33.138Z,12.10
2018-05-13T05:06:33.481Z,11.40
2018-05-13T05:08:26.583Z,11.30
2018-05-13T05:09:26.223Z,11.20
2018-05-13T05:11:20.852Z,11.30
2018-05-13T05:12:19.778Z,11.70
2018-05-13T05:14:14.029Z,11.30
2018-05-13T05:15:13.146Z,11.20
2018-05-13T05:17:06.550Z,11.50
2018-05-13T05:18:06.891Z,11.70
2018-05-13T05:20:02.402Z,12.70
2018-05-13T05:21:00.404Z,12.50
2018-05-13T05:22:53.306Z,11.90
2018-05-13T05:23:52.926Z,11.60
2018-05-13T05:25:46.718Z,11.40
2018-05-13T05:26:47.183Z,11.90
2018-05-13T05:28:40.045Z,11.20
2018-05-13T05:29:41.016Z,11.40
2018-05-13T05:31:33.460Z,11.50
2018-05-13T05:32:33.900Z,11.80
2018-05-13T05:34:26.876Z,11.90
2018-05-13T05:35:26.480Z,12.00
2018-05-13T05:37:21.246Z,11.50
2018-05-13T05:38:20.180Z,11.40
2018-05-13T05:40:13.574Z,11.60
2018-05-13T05:41:14.550Z,11.50
2018-05-13T05:43:07.977Z,12.90
2018-05-13T05:44:06.914Z,12.20
2018-05-13T05:46:01.367Z,10.90
2018-05-13T05:47:01.785Z,11.40
2018-05-13T05:48:54.283Z,12.10
2018-05-13T05:49:54.123Z,12.20
2018-05-13T05:51:48.188Z,12.20
2018-05-13T05:52:47.507Z,12.20
2018-05-13T05:54:41.400Z,11.40
2018-05-13T05:55:41.895Z,11.40
2018-05-13T05:57:35.252Z,11.60
2018-05-13T05:58:35.478Z,12.00
2018-05-13T06:00:28.171Z,11.80
2018-05-13T06:01:27.741Z,12.10
2018-05-13T06:03:21.160Z,12.30
2018-05-13T06:04:21.564Z,12.50
2018-05-13T06:06:14.970Z,12.00
2018-05-13T06:07:14.306Z,12.40
2018-05-13T06:09:07.895Z,12.30
2018-05-13T06:10:07.223Z,12.00
2018-05-13T06:12:00.800Z,12.40
2018-05-13T06:13:00.664Z,13.10
2018-05-13T06:14:54.068Z,12.60
2018-05-13T06:15:54.091Z,12.00
2018-05-13T06:17:48.544Z,12.60
2018-05-13T06:18:47.444Z,12.70
2018-05-13T06:20:41.349Z,11.90
2018-05-13T06:21:40.784Z,11.50
2018-05-13T06:23:34.284Z,12.00
2018-05-13T06:24:34.200Z,12.70
2018-05-13T06:26:27.621Z,12.60
2018-05-13T06:27:27.550Z,12.70
2018-05-13T06:29:21.525Z,13.20
2018-05-13T06:30:21.544Z,12.60
2018-05-13T06:32:14.916Z,12.50
2018-05-13T06:33:14.831Z,12.80
2018-05-13T06:35:08.237Z,13.30
2018-05-13T06:36:08.172Z,12.60
2018-05-13T06:38:01.716Z,13.50
2018-05-13T06:39:02.102Z,14.30
2018-05-13T06:40:55.062Z,13.70
2018-05-13T06:41:54.574Z,13.80
2018-05-13T06:43:48.426Z,13.30
2018-05-13T06:44:47.924Z,13.70
2018-05-13T06:46:42.304Z,12.90
2018-05-13T06:47:42.308Z,12.60
2018-05-13T06:49:36.400Z,12.90
2018-05-13T06:50:34.985Z,13.40
2018-05-13T06:52:28.740Z,12.40
2018-05-13T06:53:29.121Z,12.70
2018-05-13T06:55:22.017Z,13.40
2018-05-13T06:56:21.587Z,13.30
2018-05-13T06:58:15.452Z,12.70
2018-05-13T06:59:16.390Z,13.00
2018-05-13T07:01:08.691Z,14.00
2018-05-13T07:02:11.328Z,14.30
2018-05-13T07:04:02.087Z,14.30
2018-05-13T07:05:01.701Z,13.90
2018-05-13T07:06:56.008Z,13.90
2018-05-13T07:07:55.413Z,13.70
2018-05-13T07:09:50.886Z,13.40
2018-05-13T07:10:48.487Z,13.60
2018-05-13T07:12:42.905Z,12.80
2018-05-13T07:13:42.150Z,13.40
2018-05-13T07:15:37.496Z,13.90
2018-05-13T07:16:37.183Z,13.90
2018-05-13T07:18:30.043Z,13.40
2018-05-13T07:19:30.061Z,13.50
2018-05-13T07:21:22.502Z,13.00
2018-05-13T07:22:23.434Z,13.10
2018-05-13T07:24:16.795Z,14.00
2018-05-13T07:25:15.773Z,14.00
2018-05-13T07:27:09.243Z,14.60
2018-05-13T07:28:09.164Z,14.90
2018-05-13T07:30:03.112Z,14.40
2018-05-13T07:31:02.444Z,15.10
2018-05-13T07:32:55.922Z,14.70
2018-05-13T07:33:55.612Z,15.60
2018-05-13T07:35:49.382Z,16.20
2018-05-13T07:36:50.874Z,15.80
2018-05-13T07:38:42.752Z,17.10
2018-05-13T07:39:43.056Z,17.00
2018-05-13T07:41:37.120Z,18.40
2018-05-13T07:42:35.963Z,18.30
2018-05-13T07:44:29.435Z,18.70
2018-05-13T07:45:29.153Z,18.30
2018-05-13T07:47:22.858Z,19.20
2018-05-13T07:48:22.844Z,18.80
2018-05-13T07:50:17.918Z,19.20
2018-05-13T07:51:16.188Z,19.40
2018-05-13T07:53:10.326Z,20.20
2018-05-13T07:54:11.956Z,20.10
2018-05-13T07:56:05.153Z,21.10
2018-05-13T07:57:05.150Z,20.70
2018-05-13T07:58:58.359Z,22.20
2018-05-13T07:59:56.786Z,23.50
2018-05-13T08:01:52.218Z,23.90
2018-05-13T08:02:49.715Z,25.90
2018-05-13T08:04:44.416Z,28.80
2018-05-13T08:05:43.933Z,29.60
2018-05-13T08:07:39.033Z,31.50
2018-05-13T08:08:38.427Z,31.90
2018-05-13T08:10:31.577Z,32.20
2018-05-13T08:11:31.810Z,31.60
2018-05-13T08:13:23.718Z,31.60
2018-05-13T08:15:37.979Z,31.70
2018-05-13T08:16:36.793Z,32.50
2018-05-13T08:18:31.784Z,32.40
2018-05-13T08:19:31.873Z,32.50
2018-05-13T08:21:23.854Z,32.90
2018-05-13T08:22:25.212Z,33.90
2018-05-13T08:24:17.714Z,32.50
2018-05-13T08:25:16.713Z,33.40
2018-05-13T08:27:11.254Z,34.10
2018-05-13T08:28:10.829Z,34.40
2018-05-13T08:30:03.847Z,34.40
2018-05-13T08:31:03.791Z,35.00
2018-05-13T08:32:58.176Z,35.60
2018-05-13T08:33:57.006Z,35.30
2018-05-13T08:35:50.597Z,37.70
2018-05-13T08:36:50.440Z,36.40
2018-05-13T08:38:45.018Z,38.10
2018-05-13T08:39:43.640Z,38.00
2018-05-13T08:41:37.139Z,37.40
2018-05-13T08:42:37.131Z,36.00
2018-05-13T08:44:31.085Z,35.90
2018-05-13T08:45:31.964Z,35.20
2018-05-13T08:47:26.057Z,36.00
2018-05-13T08:48:23.639Z,35.50
2018-05-13T08:50:18.275Z,37.10
2018-05-13T08:51:16.826Z,37.20
2018-05-13T08:53:10.260Z,36.40
2018-05-13T08:54:09.905Z,36.10
2018-05-13T08:56:03.874Z,35.50
2018-05-13T08:57:03.325Z,34.60
2018-05-13T08:58:58.429Z,35.80
2018-05-13T08:59:58.041Z,36.20
2018-05-13T09:01:50.940Z,33.90
2018-05-13T09:02:51.450Z,33.70
2018-05-13T09:04:44.877Z,35.30
2018-05-13T09:05:45.703Z,34.20
2018-05-13T09:07:37.868Z,35.20
2018-05-13T09:08:39.026Z,34.20
2018-05-13T09:10:30.929Z,33.70
2018-05-13T09:11:30.878Z,33.50
2018-05-13T09:13:24.783Z,34.20
2018-05-13T09:14:23.632Z,34.50
2018-05-13T09:16:19.265Z,36.20
2018-05-13T09:17:18.882Z,36.50
2018-05-13T09:19:10.896Z,35.60
2018-05-13T09:20:10.664Z,36.70
2018-05-13T09:22:05.471Z,38.30
2018-05-13T09:23:03.849Z,38.80
2018-05-13T09:24:57.437Z,36.30
2018-05-13T09:25:57.457Z,38.00
2018-05-13T09:27:51.602Z,39.90
2018-05-13T09:28:51.268Z,40.20
2018-05-13T09:31:36.208Z,38.90
2018-05-13T09:32:35.106Z,38.90
2018-05-13T09:34:30.272Z,38.00
2018-05-13T09:35:30.096Z,39.10
2018-05-13T09:37:22.886Z,41.20
2018-05-13T09:38:24.896Z,41.80
2018-05-13T09:40:16.858Z,42.40
2018-05-13T09:41:15.418Z,43.80
2018-05-13T09:43:16.914Z,43.20
2018-05-13T09:44:08.832Z,41.50
2018-05-13T09:46:54.741Z,42.10
2018-05-13T09:47:54.158Z,43.70
2018-05-13T09:49:47.889Z,44.00
2018-05-13T09:50:47.867Z,43.70
2018-05-13T09:52:46.699Z,43.30
2018-05-13T09:53:40.077Z,44.10
2018-05-13T09:55:34.408Z,43.20
2018-05-13T09:56:33.537Z,45.90
2018-05-13T09:58:27.643Z,41.90
2018-05-13T09:59:27.247Z,43.00
2018-05-13T10:02:11.737Z,43.80
2018-05-13T10:03:12.220Z,44.00
2018-05-13T10:05:06.253Z,44.20
2018-05-13T10:06:06.328Z,44.00
2018-05-13T10:08:00.131Z,44.10
2018-05-13T10:08:59.205Z,43.70
2018-05-13T10:10:52.456Z,43.50
2018-05-13T10:11:52.066Z,43.10
2018-05-13T10:13:47.150Z,43.40
2018-05-13T10:14:46.395Z,40.90
2018-05-13T10:16:40.282Z,42.00
2018-05-13T10:17:39.484Z,43.90
2018-05-13T10:19:37.390Z,42.20
2018-05-13T10:20:37.260Z,41.50
2018-05-13T10:22:31.696Z,41.80
2018-05-13T10:23:30.723Z,42.30
2018-05-13T10:25:25.377Z,43.00
2018-05-13T10:26:24.161Z,42.30
2018-05-13T10:28:18.320Z,41.40
2018-05-13T10:29:18.847Z,41.60
2018-05-13T10:31:12.344Z,40.90
2018-05-13T10:32:11.688Z,40.90
2018-05-13T10:34:08.205Z,40.70
2018-05-13T10:35:06.066Z,40.00
2018-05-13T10:36:58.951Z,39.60
2018-05-13T10:37:59.022Z,39.20
2018-05-13T10:39:54.424Z,40.70
2018-05-13T10:40:53.973Z,39.40
2018-05-13T10:42:49.072Z,40.30
2018-05-13T10:43:47.693Z,40.70
2018-05-13T10:45:40.476Z,40.50
2018-05-13T10:46:39.187Z,40.90
2018-05-13T10:48:34.121Z,40.00
2018-05-13T10:49:33.053Z,39.70
2018-05-13T10:51:25.977Z,40.30
2018-05-13T10:52:25.618Z,40.90
2018-05-13T10:54:30.271Z,39.10
2018-05-13T10:55:18.870Z,39.30
2018-05-13T10:57:11.863Z,39.60
2018-05-13T10:58:11.442Z,39.80
2018-05-13T11:00:05.769Z,39.00
2018-05-13T11:01:04.949Z,38.50
2018-05-13T11:03:00.579Z,38.90
2018-05-13T11:03:59.599Z,39.10
2018-05-13T11:05:53.250Z,40.10
2018-05-13T11:06:52.530Z,40.20
2018-05-13T11:08:46.458Z,39.90
2018-05-13T11:09:47.372Z,40.30
2018-05-13T11:11:39.666Z,40.40
2018-05-13T11:12:39.091Z,40.80
2018-05-13T11:14:33.491Z,39.20
2018-05-13T11:15:33.934Z,40.90
2018-05-13T11:17:26.334Z,41.30
2018-05-13T11:18:25.522Z,41.50
2018-05-13T11:20:20.092Z,43.00
2018-05-13T11:21:19.661Z,42.70
2018-05-13T11:23:12.583Z,44.10
2018-05-13T11:24:12.316Z,43.80
2018-05-13T11:26:06.776Z,44.30
2018-05-13T11:27:05.826Z,45.60
2018-05-13T11:29:01.363Z,41.80
2018-05-13T11:29:59.079Z,43.20
2018-05-13T11:31:52.970Z,44.10
2018-05-13T11:32:53.389Z,43.70
2018-05-13T11:34:48.263Z,42.70
2018-05-13T11:35:45.791Z,43.70
2018-05-13T11:37:40.095Z,43.70
2018-05-13T11:38:39.202Z,44.10
2018-05-13T11:40:33.123Z,41.90
2018-05-13T11:41:32.088Z,42.70
2018-05-13T11:43:26.524Z,41.30
2018-05-13T11:44:26.902Z,42.00
2018-05-13T11:46:22.763Z,41.40
2018-05-13T11:47:21.223Z,41.60
2018-05-13T11:49:14.508Z,41.10
2018-05-13T11:50:13.491Z,40.00
2018-05-13T11:52:07.777Z,38.80
2018-05-13T11:53:07.262Z,38.00
2018-05-13T11:55:00.804Z,39.70
2018-05-13T11:56:01.345Z,40.10
2018-05-13T11:57:55.217Z,39.10
2018-05-13T11:58:55.177Z,38.60
2018-05-13T12:00:48.898Z,40.90
2018-05-13T12:01:48.334Z,42.20
2018-05-13T12:03:42.182Z,39.60
2018-05-13T12:04:42.166Z,41.60
2018-05-13T12:06:35.157Z,39.60
2018-05-13T12:07:36.905Z,39.30
2018-05-13T12:09:33.010Z,38.60
2018-05-13T12:10:32.405Z,38.40
2018-05-13T12:12:26.035Z,38.60
2018-05-13T12:13:25.719Z,37.30
2018-05-13T12:15:32.497Z,37.00
2018-05-13T12:16:30.780Z,37.70
2018-05-13T12:18:23.391Z,36.40
2018-05-13T12:19:25.035Z,36.40
2018-05-13T12:21:17.922Z,34.40
2018-05-13T12:22:15.786Z,37.00
2018-05-13T12:24:12.642Z,35.60
2018-05-13T12:25:11.153Z,34.80
2018-05-13T12:27:05.204Z,34.90
2018-05-13T12:28:04.107Z,35.00
2018-05-13T12:29:57.558Z,34.20
2018-05-13T12:30:57.961Z,34.40
2018-05-13T12:32:50.370Z,34.90
2018-05-13T12:33:50.318Z,35.70
2018-05-13T12:35:43.626Z,36.80
2018-05-13T12:36:43.406Z,36.40
2018-05-13T12:38:37.625Z,36.30
2018-05-13T12:39:37.656Z,34.70
2018-05-13T12:41:30.427Z,35.90
2018-05-13T12:42:30.465Z,35.30
2018-05-13T12:44:25.515Z,37.30
2018-05-13T12:45:24.780Z,37.00
2018-05-13T12:47:17.700Z,37.30
2018-05-13T12:48:17.004Z,38.30
2018-05-13T12:50:12.289Z,35.80
2018-05-13T12:51:12.124Z,37.50
2018-05-13T12:53:05.630Z,37.70
2018-05-13T12:54:05.051Z,37.70
2018-05-13T12:56:01.636Z,36.90
2018-05-13T12:56:59.188Z,36.70
2018-05-13T12:58:51.039Z,37.10
2018-05-13T12:59:51.206Z,36.50
2018-05-13T13:01:44.435Z,36.40
2018-05-13T13:02:46.205Z,37.80
2018-05-13T13:04:38.383Z,36.60
2018-05-13T13:05:38.880Z,35.90
2018-05-13T13:07:31.325Z,37.80
2018-05-13T13:08:31.631Z,36.30
2018-05-13T13:10:26.235Z,36.30
2018-05-13T13:11:24.529Z,36.30
2018-05-13T13:13:19.045Z,37.70
2018-05-13T13:14:17.962Z,38.10
2018-05-13T13:16:12.034Z,37.30
2018-05-13T13:17:11.831Z,37.90
2018-05-13T13:19:04.253Z,36.90
2018-05-13T13:20:03.999Z,38.10
2018-05-13T13:21:57.956Z,38.60
2018-05-13T13:22:59.018Z,39.80
2018-05-13T13:24:52.789Z,39.70
2018-05-13T13:25:51.166Z,39.70
2018-05-13T13:27:45.132Z,39.00
2018-05-13T13:28:44.560Z,39.70
2018-05-13T13:30:38.015Z,38.70
2018-05-13T13:31:37.410Z,37.90
2018-05-13T13:33:32.215Z,38.70
2018-05-13T13:34:30.340Z,38.70
2018-05-13T13:36:23.999Z,40.60
2018-05-13T13:37:24.722Z,39.50
2018-05-13T13:39:17.373Z,39.50
2018-05-13T13:40:17.308Z,39.60
2018-05-13T13:42:11.233Z,38.30
2018-05-13T13:43:11.193Z,39.20
2018-05-13T13:45:04.643Z,38.80
2018-05-13T13:46:04.513Z,39.70
2018-05-13T13:47:58.690Z,40.10
2018-05-13T13:48:58.959Z,40.30
2018-05-13T13:50:51.397Z,39.40
2018-05-13T13:51:50.975Z,37.70
2018-05-13T13:53:45.350Z,38.10
2018-05-13T13:54:44.354Z,39.20
2018-05-13T13:56:38.490Z,37.80
2018-05-13T13:57:38.656Z,37.80
2018-05-13T13:59:34.218Z,38.10
2018-05-13T14:00:32.562Z,39.80
2018-05-13T14:02:26.863Z,36.90
2018-05-13T14:03:24.904Z,36.50
2018-05-13T14:05:20.795Z,37.80
2018-05-13T14:06:20.372Z,38.20
2018-05-13T14:08:13.032Z,38.70
2018-05-13T14:09:13.540Z,38.20
2018-05-13T14:11:07.093Z,38.90
2018-05-13T14:12:05.898Z,40.50
2018-05-13T14:14:00.685Z,38.50
2018-05-13T14:14:59.061Z,40.40
2018-05-13T14:16:52.957Z,40.20
2018-05-13T14:17:54.071Z,40.60
2018-05-13T14:19:46.561Z,41.60
2018-05-13T14:20:46.439Z,41.20
2018-05-13T14:22:39.872Z,40.60
2018-05-13T14:23:39.727Z,40.40
2018-05-13T14:25:33.735Z,43.40
2018-05-13T14:26:32.137Z,43.80
2018-05-13T14:28:26.496Z,43.70
2018-05-13T14:29:25.711Z,45.00
2018-05-13T14:31:19.061Z,42.80
2018-05-13T14:32:19.467Z,43.70
2018-05-13T14:34:14.607Z,43.00
2018-05-13T14:35:12.889Z,42.80
2018-05-13T14:37:07.800Z,42.50
2018-05-13T14:38:07.429Z,42.70
2018-05-13T14:40:00.149Z,41.60
2018-05-13T14:41:00.198Z,39.90
2018-05-13T14:42:51.966Z,40.20
2018-05-13T14:43:51.901Z,39.50
2018-05-13T14:45:46.571Z,38.40
2018-05-13T14:46:45.450Z,37.80
2018-05-13T14:48:38.916Z,40.40
2018-05-13T14:49:38.869Z,40.30
2018-05-13T14:51:32.268Z,40.50
2018-05-13T14:52:32.180Z,40.60
2018-05-13T14:54:26.483Z,39.30
2018-05-13T14:55:26.027Z,39.20
2018-05-13T14:57:20.088Z,38.40
2018-05-13T14:58:20.115Z,38.20
2018-05-13T15:00:12.577Z,37.50
2018-05-13T15:01:12.183Z,39.30
2018-05-13T15:03:06.933Z,39.40
2018-05-13T15:04:06.905Z,37.60
2018-05-13T15:05:59.339Z,38.30
2018-05-13T15:06:58.956Z,37.40
2018-05-13T15:08:53.243Z,39.50
2018-05-13T15:09:53.193Z,39.60
2018-05-13T15:11:46.035Z,40.30
2018-05-13T15:12:47.500Z,40.40
2018-05-13T15:14:40.016Z,41.20
2018-05-13T15:15:39.448Z,42.20
2018-05-13T15:17:33.774Z,43.00
2018-05-13T15:18:32.545Z,41.90
2018-05-13T15:20:28.338Z,41.20
2018-05-13T15:21:26.683Z,41.50
2018-05-13T15:23:20.083Z,41.90
2018-05-13T15:24:19.184Z,43.00
2018-05-13T15:26:13.485Z,43.60
2018-05-13T15:27:12.584Z,43.00
2018-05-13T15:29:06.855Z,42.40
2018-05-13T15:30:06.312Z,43.00
2018-05-13T15:31:59.709Z,42.50
2018-05-13T15:33:00.202Z,44.50
2018-05-13T15:34:53.051Z,42.20
2018-05-13T15:35:53.508Z,43.50
2018-05-13T15:37:46.056Z,44.60
2018-05-13T15:38:46.023Z,45.50
2018-05-13T15:40:40.488Z,46.30
2018-05-13T15:41:41.021Z,45.30
2018-05-13T15:43:33.414Z,46.60
2018-05-13T15:44:32.972Z,46.20
2018-05-13T15:46:26.264Z,43.50
2018-05-13T15:47:25.913Z,44.40
2018-05-13T15:49:20.711Z,46.70
2018-05-13T15:50:20.476Z,46.10
2018-05-13T15:52:14.554Z,45.20
2018-05-13T15:55:12.019Z,46.00
2018-05-13T15:58:01.423Z,44.80
2018-05-13T15:59:01.823Z,44.80
2018-05-13T16:00:54.247Z,44.80
2018-05-13T16:01:54.140Z,46.80
2018-05-13T16:03:47.607Z,45.10
2018-05-13T16:04:46.810Z,46.10
2018-05-13T16:06:40.534Z,47.90
2018-05-13T16:07:41.307Z,46.20
2018-05-13T16:09:33.798Z,45.80
2018-05-13T16:10:33.513Z,46.90
2018-05-13T16:12:29.411Z,46.80
2018-05-13T16:13:27.718Z,46.00
2018-05-13T16:15:20.594Z,46.20
2018-05-13T16:16:20.175Z,45.60
2018-05-13T16:18:13.966Z,47.00
2018-05-13T16:19:14.924Z,48.40
2018-05-13T16:21:07.953Z,47.60
2018-05-13T16:22:08.324Z,48.30
2018-05-13T16:24:01.672Z,50.80
2018-05-13T16:25:00.785Z,50.70
2018-05-13T16:26:54.653Z,50.80
2018-05-13T16:27:53.755Z,51.20
2018-05-13T16:29:48.083Z,50.50
2018-05-13T16:30:47.450Z,50.10
2018-05-13T16:32:40.924Z,49.60
2018-05-13T16:33:40.886Z,48.80
2018-05-13T16:35:33.733Z,48.40
2018-05-13T16:36:33.636Z,47.20
2018-05-13T16:38:27.144Z,46.00
2018-05-13T16:39:26.731Z,48.30
2018-05-13T16:41:20.541Z,45.40
2018-05-13T16:42:20.132Z,46.50
2018-05-13T16:44:13.916Z,48.80
2018-05-13T16:45:13.956Z,48.60
2018-05-13T16:47:07.262Z,46.60
2018-05-13T16:48:06.872Z,47.30
2018-05-13T16:50:00.660Z,48.30
2018-05-13T16:51:00.224Z,47.30
2018-05-13T16:52:53.451Z,46.70
2018-05-13T16:53:53.106Z,45.70
2018-05-13T16:55:46.815Z,48.50
2018-05-13T16:56:46.525Z,47.10
2018-05-13T16:58:40.302Z,46.90
2018-05-13T16:59:40.177Z,46.60
2018-05-13T17:01:34.312Z,47.30
2018-05-13T17:02:33.318Z,48.20
2018-05-13T17:04:27.481Z,45.90
2018-05-13T17:05:26.633Z,46.60
2018-05-13T17:07:20.326Z,46.20
2018-05-13T17:08:19.945Z,44.70
2018-05-13T17:10:13.661Z,46.10
2018-05-13T17:11:13.680Z,47.20
2018-05-13T17:13:07.052Z,46.50
2018-05-13T17:14:06.749Z,45.50
2018-05-13T17:16:00.513Z,46.60
2018-05-13T17:17:01.108Z,45.30
2018-05-13T17:18:53.821Z,45.10
2018-05-13T17:19:53.417Z,45.90
2018-05-13T17:21:47.244Z,45.00
2018-05-13T17:22:46.845Z,43.20
2018-05-13T17:24:41.241Z,44.80
2018-05-13T17:25:40.536Z,45.60
2018-05-13T17:27:33.919Z,44.40
2018-05-13T17:28:34.175Z,45.10
2018-05-13T17:30:27.947Z,44.30
2018-05-13T17:31:27.280Z,45.00
2018-05-13T17:33:20.793Z,45.50
2018-05-13T17:34:20.690Z,44.90
2018-05-13T17:36:14.149Z,45.40
2018-05-13T17:37:14.637Z,44.80
2018-05-13T17:39:07.388Z,45.80
2018-05-13T17:40:07.055Z,45.40
2018-05-13T17:42:00.824Z,45.40
2018-05-13T17:43:00.923Z,44.80
2018-05-13T17:44:54.119Z,46.20
2018-05-13T17:45:53.784Z,47.00
2018-05-13T17:47:47.540Z,47.00
2018-05-13T17:48:47.157Z,47.60
2018-05-13T17:50:40.987Z,48.50
2018-05-13T17:51:42.418Z,49.10
2018-05-13T17:53:34.360Z,49.30
2018-05-13T17:54:34.455Z,49.30
2018-05-13T17:56:27.622Z,49.30
2018-05-13T17:57:27.398Z,48.00
2018-05-13T17:59:21.565Z,51.00
2018-05-13T18:00:21.410Z,50.20
2018-05-13T18:02:14.616Z,53.70
2018-05-13T18:03:15.173Z,51.50
2018-05-13T18:05:08.739Z,50.50
2018-05-13T18:07:58.435Z,50.90
2018-05-13T18:08:36.131Z,51.60
2018-05-13T18:10:31.208Z,53.90
2018-05-13T18:12:42.638Z,53.10
2018-05-13T18:13:46.140Z,53.30
2018-05-13T18:15:36.186Z,53.00
2018-05-13T18:16:35.481Z,51.50
2018-05-13T18:18:28.668Z,50.00
2018-05-13T18:19:28.614Z,50.00
2018-05-13T18:21:21.687Z,51.60
2018-05-13T18:22:21.656Z,52.30
2018-05-13T18:24:15.410Z,52.50
2018-05-13T18:25:15.004Z,52.40
2018-05-13T18:27:16.851Z,53.30
2018-05-13T18:28:16.109Z,53.60
2018-05-13T18:30:10.118Z,54.10
2018-05-13T18:31:10.152Z,54.80
2018-05-13T18:33:03.436Z,56.20
2018-05-13T18:34:03.673Z,54.00
2018-05-13T18:35:56.927Z,55.00
2018-05-13T18:36:56.502Z,54.10
2018-05-13T18:38:50.260Z,52.80
2018-05-13T18:39:49.971Z,51.00
2018-05-13T18:41:44.138Z,54.00
2018-05-13T18:42:43.622Z,54.70
2018-05-13T18:44:37.598Z,53.40
2018-05-13T18:45:37.447Z,53.00
2018-05-13T18:47:31.068Z,52.10
2018-05-13T18:48:30.371Z,52.40
2018-05-13T18:50:24.222Z,53.90